sensor_id;sensor_type;location;lat;lon;timestamp;P1;durP1;ratioP1;P2;durP2;ratioP2
68300;SDS011;55146;47.468;18.806;2023-07-08T00:01:54;8.27;;;5.20;;
68300;SDS011;55146;47.468;18.806;2023-07-08T00:04:20;8.93;;;5.07;;
68300;SDS011;55146;47.468;18.806;2023-07-08T00:06:45;10.93;;;4.40;;
68300;SDS011;55146;47.468;18.806;2023-07-08T00:09:11;9.48;;;5.12;;
68300;SDS011;55146;47.468;18.806;2023-07-08T00:11:40;7.53;;;4.45;;
68300;SDS011;55146;47.468;18.806;2023-07-08T00:14:05;11.03;;;4.63;;
68300;SDS011;55146;47.468;18.806;2023-07-08T00:16:31;8.33;;;4.73;;
68300;SDS011;55146;47.468;18.806;2023-07-08T00:18:56;8.40;;;5.20;;
68300;SDS011;55146;47.468;18.806;2023-07-08T00:21:21;9.13;;;4.80;;
68300;SDS011;55146;47.468;18.806;2023-07-08T00:23:47;7.18;;;4.20;;
68300;SDS011;55146;47.468;18.806;2023-07-08T00:28:44;9.52;;;4.90;;
68300;SDS011;55146;47.468;18.806;2023-07-08T00:31:10;9.10;;;5.37;;
68300;SDS011;55146;47.468;18.806;2023-07-08T00:33:35;9.63;;;4.90;;
68300;SDS011;55146;47.468;18.806;2023-07-08T00:36:01;8.83;;;5.30;;
68300;SDS011;55146;47.468;18.806;2023-07-08T00:38:27;11.07;;;4.97;;
68300;SDS011;55146;47.468;18.806;2023-07-08T00:48:37;7.77;;;5.20;;
68300;SDS011;55146;47.468;18.806;2023-07-08T00:51:05;7.68;;;5.20;;
68300;SDS011;55146;47.468;18.806;2023-07-08T00:53:36;9.95;;;6.03;;
68300;SDS011;55146;47.468;18.806;2023-07-08T00:56:03;8.80;;;5.72;;
68300;SDS011;55146;47.468;18.806;2023-07-08T00:58:47;11.82;;;5.05;;
68300;SDS011;55146;47.468;18.806;2023-07-08T01:01:17;11.20;;;5.63;;
68300;SDS011;55146;47.468;18.806;2023-07-08T01:03:48;8.95;;;5.03;;
68300;SDS011;55146;47.468;18.806;2023-07-08T01:06:17;8.18;;;5.68;;
68300;SDS011;55146;47.468;18.806;2023-07-08T01:08:44;7.65;;;4.95;;
68300;SDS011;55146;47.468;18.806;2023-07-08T01:11:10;8.30;;;5.30;;
68300;SDS011;55146;47.468;18.806;2023-07-08T01:13:40;8.47;;;5.40;;
68300;SDS011;55146;47.468;18.806;2023-07-08T01:16:09;7.43;;;4.43;;
68300;SDS011;55146;47.468;18.806;2023-07-08T01:18:34;8.07;;;5.53;;
68300;SDS011;55146;47.468;18.806;2023-07-08T01:21:04;7.55;;;4.47;;
68300;SDS011;55146;47.468;18.806;2023-07-08T01:23:51;8.88;;;5.65;;
68300;SDS011;55146;47.468;18.806;2023-07-08T01:26:16;7.73;;;5.30;;
68300;SDS011;55146;47.468;18.806;2023-07-08T01:28:42;8.65;;;4.75;;
68300;SDS011;55146;47.468;18.806;2023-07-08T01:31:07;11.10;;;4.80;;
68300;SDS011;55146;47.468;18.806;2023-07-08T01:33:34;8.93;;;5.40;;
68300;SDS011;55146;47.468;18.806;2023-07-08T01:35:59;10.40;;;4.97;;
68300;SDS011;55146;47.468;18.806;2023-07-08T01:38:25;9.53;;;5.10;;
68300;SDS011;55146;47.468;18.806;2023-07-08T01:40:53;8.32;;;5.15;;
68300;SDS011;55146;47.468;18.806;2023-07-08T01:43:21;9.25;;;5.20;;
68300;SDS011;55146;47.468;18.806;2023-07-08T01:45:47;9.00;;;4.77;;
68300;SDS011;55146;47.468;18.806;2023-07-08T01:48:15;8.85;;;5.43;;
68300;SDS011;55146;47.468;18.806;2023-07-08T01:51:04;8.85;;;5.60;;
68300;SDS011;55146;47.468;18.806;2023-07-08T01:53:34;8.50;;;5.40;;
68300;SDS011;55146;47.468;18.806;2023-07-08T01:56:02;9.57;;;4.70;;
68300;SDS011;55146;47.468;18.806;2023-07-08T01:58:28;8.88;;;5.62;;
68300;SDS011;55146;47.468;18.806;2023-07-08T02:00:54;8.52;;;5.50;;
68300;SDS011;55146;47.468;18.806;2023-07-08T02:03:20;8.20;;;5.62;;
68300;SDS011;55146;47.468;18.806;2023-07-08T02:05:46;8.27;;;5.70;;
68300;SDS011;55146;47.468;18.806;2023-07-08T02:08:11;8.10;;;5.00;;
68300;SDS011;55146;47.468;18.806;2023-07-08T02:10:38;8.50;;;5.67;;
68300;SDS011;55146;47.468;18.806;2023-07-08T02:13:04;7.62;;;4.40;;
68300;SDS011;55146;47.468;18.806;2023-07-08T02:15:30;8.83;;;5.17;;
68300;SDS011;55146;47.468;18.806;2023-07-08T02:17:55;7.63;;;5.43;;
68300;SDS011;55146;47.468;18.806;2023-07-08T02:20:21;7.90;;;5.50;;
68300;SDS011;55146;47.468;18.806;2023-07-08T02:22:47;9.63;;;5.93;;
68300;SDS011;55146;47.468;18.806;2023-07-08T02:25:12;8.27;;;4.63;;
68300;SDS011;55146;47.468;18.806;2023-07-08T02:27:38;8.07;;;4.87;;
68300;SDS011;55146;47.468;18.806;2023-07-08T02:30:04;7.53;;;4.65;;
68300;SDS011;55146;47.468;18.806;2023-07-08T02:32:31;8.13;;;4.17;;
68300;SDS011;55146;47.468;18.806;2023-07-08T02:34:59;7.75;;;4.37;;
68300;SDS011;55146;47.468;18.806;2023-07-08T02:37:24;7.00;;;4.47;;
68300;SDS011;55146;47.468;18.806;2023-07-08T02:39:50;7.57;;;4.83;;
68300;SDS011;55146;47.468;18.806;2023-07-08T02:42:15;7.37;;;4.53;;
68300;SDS011;55146;47.468;18.806;2023-07-08T02:44:40;8.27;;;4.70;;
68300;SDS011;55146;47.468;18.806;2023-07-08T02:47:06;6.63;;;4.20;;
68300;SDS011;55146;47.468;18.806;2023-07-08T02:49:31;7.30;;;4.27;;
68300;SDS011;55146;47.468;18.806;2023-07-08T02:51:56;8.33;;;4.97;;
68300;SDS011;55146;47.468;18.806;2023-07-08T02:54:22;7.07;;;4.50;;
68300;SDS011;55146;47.468;18.806;2023-07-08T02:56:47;8.07;;;5.83;;
68300;SDS011;55146;47.468;18.806;2023-07-08T02:59:12;7.95;;;4.80;;
68300;SDS011;55146;47.468;18.806;2023-07-08T03:01:38;7.67;;;4.63;;
68300;SDS011;55146;47.468;18.806;2023-07-08T03:04:09;7.17;;;4.40;;
68300;SDS011;55146;47.468;18.806;2023-07-08T03:06:42;7.55;;;4.25;;
68300;SDS011;55146;47.468;18.806;2023-07-08T03:09:11;7.12;;;4.82;;
68300;SDS011;55146;47.468;18.806;2023-07-08T03:11:37;8.77;;;5.07;;
68300;SDS011;55146;47.468;18.806;2023-07-08T03:14:04;8.65;;;5.55;;
68300;SDS011;55146;47.468;18.806;2023-07-08T03:16:30;7.33;;;4.07;;
68300;SDS011;55146;47.468;18.806;2023-07-08T03:18:56;7.60;;;4.80;;
68300;SDS011;55146;47.468;18.806;2023-07-08T03:21:21;9.73;;;4.68;;
68300;SDS011;55146;47.468;18.806;2023-07-08T03:23:48;8.83;;;5.00;;
68300;SDS011;55146;47.468;18.806;2023-07-08T03:26:14;8.60;;;4.80;;
68300;SDS011;55146;47.468;18.806;2023-07-08T03:28:42;8.13;;;4.20;;
68300;SDS011;55146;47.468;18.806;2023-07-08T03:31:09;8.25;;;4.57;;
68300;SDS011;55146;47.468;18.806;2023-07-08T03:33:34;6.90;;;4.72;;
68300;SDS011;55146;47.468;18.806;2023-07-08T03:36:01;8.13;;;4.53;;
68300;SDS011;55146;47.468;18.806;2023-07-08T03:38:27;6.90;;;4.37;;
68300;SDS011;55146;47.468;18.806;2023-07-08T03:40:52;8.33;;;5.17;;
68300;SDS011;55146;47.468;18.806;2023-07-08T03:43:17;8.30;;;5.17;;
68300;SDS011;55146;47.468;18.806;2023-07-08T03:45:43;8.90;;;5.27;;
68300;SDS011;55146;47.468;18.806;2023-07-08T03:48:10;7.57;;;4.85;;
68300;SDS011;55146;47.468;18.806;2023-07-08T03:50:36;7.82;;;4.97;;
68300;SDS011;55146;47.468;18.806;2023-07-08T03:53:02;9.07;;;5.17;;
68300;SDS011;55146;47.468;18.806;2023-07-08T03:55:27;9.77;;;5.20;;
68300;SDS011;55146;47.468;18.806;2023-07-08T03:57:53;8.02;;;5.05;;
68300;SDS011;55146;47.468;18.806;2023-07-08T04:00:18;7.23;;;4.57;;
68300;SDS011;55146;47.468;18.806;2023-07-08T04:02:44;11.45;;;4.50;;
68300;SDS011;55146;47.468;18.806;2023-07-08T04:05:14;10.95;;;4.90;;
68300;SDS011;55146;47.468;18.806;2023-07-08T04:07:41;8.43;;;5.28;;
68300;SDS011;55146;47.468;18.806;2023-07-08T04:10:07;9.77;;;4.57;;
68300;SDS011;55146;47.468;18.806;2023-07-08T04:12:34;8.02;;;4.30;;
68300;SDS011;55146;47.468;18.806;2023-07-08T04:14:59;9.63;;;4.70;;
68300;SDS011;55146;47.468;18.806;2023-07-08T04:17:24;8.53;;;5.37;;
68300;SDS011;55146;47.468;18.806;2023-07-08T04:19:50;10.17;;;5.27;;
68300;SDS011;55146;47.468;18.806;2023-07-08T04:22:16;8.10;;;4.78;;
68300;SDS011;55146;47.468;18.806;2023-07-08T04:24:41;9.90;;;5.50;;
68300;SDS011;55146;47.468;18.806;2023-07-08T04:27:09;6.95;;;4.78;;
68300;SDS011;55146;47.468;18.806;2023-07-08T04:29:40;8.33;;;5.10;;
68300;SDS011;55146;47.468;18.806;2023-07-08T04:32:06;11.50;;;4.80;;
68300;SDS011;55146;47.468;18.806;2023-07-08T04:34:31;8.05;;;5.05;;
68300;SDS011;55146;47.468;18.806;2023-07-08T04:36:56;12.90;;;5.17;;
68300;SDS011;55146;47.468;18.806;2023-07-08T04:39:22;6.60;;;4.90;;
68300;SDS011;55146;47.468;18.806;2023-07-08T04:41:47;7.23;;;4.90;;
68300;SDS011;55146;47.468;18.806;2023-07-08T04:44:13;8.35;;;5.20;;
68300;SDS011;55146;47.468;18.806;2023-07-08T04:49:11;7.90;;;4.70;;
68300;SDS011;55146;47.468;18.806;2023-07-08T04:51:38;8.25;;;4.80;;
68300;SDS011;55146;47.468;18.806;2023-07-08T04:54:04;7.87;;;4.70;;
68300;SDS011;55146;47.468;18.806;2023-07-08T04:56:46;8.95;;;4.90;;
68300;SDS011;55146;47.468;18.806;2023-07-08T04:59:14;8.13;;;4.50;;
68300;SDS011;55146;47.468;18.806;2023-07-08T05:01:42;8.75;;;5.30;;
68300;SDS011;55146;47.468;18.806;2023-07-08T05:04:09;8.07;;;4.80;;
68300;SDS011;55146;47.468;18.806;2023-07-08T05:06:36;8.65;;;5.80;;
68300;SDS011;55146;47.468;18.806;2023-07-08T05:09:02;7.87;;;4.22;;
68300;SDS011;55146;47.468;18.806;2023-07-08T05:11:28;9.88;;;4.40;;
68300;SDS011;55146;47.468;18.806;2023-07-08T05:13:54;10.55;;;5.22;;
68300;SDS011;55146;47.468;18.806;2023-07-08T05:16:19;11.53;;;5.40;;
68300;SDS011;55146;47.468;18.806;2023-07-08T05:18:45;11.07;;;5.17;;
68300;SDS011;55146;47.468;18.806;2023-07-08T05:21:10;12.05;;;5.03;;
68300;SDS011;55146;47.468;18.806;2023-07-08T05:23:36;8.47;;;5.50;;
68300;SDS011;55146;47.468;18.806;2023-07-08T05:26:02;11.48;;;4.60;;
68300;SDS011;55146;47.468;18.806;2023-07-08T05:28:29;7.93;;;4.53;;
68300;SDS011;55146;47.468;18.806;2023-07-08T05:30:55;10.68;;;5.50;;
68300;SDS011;55146;47.468;18.806;2023-07-08T05:33:21;9.85;;;4.50;;
68300;SDS011;55146;47.468;18.806;2023-07-08T05:35:47;9.38;;;5.55;;
68300;SDS011;55146;47.468;18.806;2023-07-08T05:38:13;8.47;;;4.17;;
68300;SDS011;55146;47.468;18.806;2023-07-08T05:40:38;7.93;;;4.40;;
68300;SDS011;55146;47.468;18.806;2023-07-08T05:43:03;7.50;;;4.73;;
68300;SDS011;55146;47.468;18.806;2023-07-08T05:45:28;7.63;;;4.87;;
68300;SDS011;55146;47.468;18.806;2023-07-08T05:47:55;9.88;;;5.25;;
68300;SDS011;55146;47.468;18.806;2023-07-08T05:50:20;10.07;;;5.50;;
68300;SDS011;55146;47.468;18.806;2023-07-08T05:52:46;16.17;;;5.53;;
68300;SDS011;55146;47.468;18.806;2023-07-08T05:55:11;8.70;;;5.97;;
68300;SDS011;55146;47.468;18.806;2023-07-08T05:57:36;11.70;;;5.30;;
68300;SDS011;55146;47.468;18.806;2023-07-08T06:00:02;10.63;;;4.93;;
68300;SDS011;55146;47.468;18.806;2023-07-08T06:02:28;12.43;;;5.82;;
68300;SDS011;55146;47.468;18.806;2023-07-08T06:04:54;11.73;;;5.53;;
68300;SDS011;55146;47.468;18.806;2023-07-08T06:07:19;9.87;;;5.80;;
68300;SDS011;55146;47.468;18.806;2023-07-08T06:09:45;12.00;;;6.23;;
68300;SDS011;55146;47.468;18.806;2023-07-08T06:12:10;8.83;;;6.17;;
68300;SDS011;55146;47.468;18.806;2023-07-08T06:14:36;11.55;;;5.95;;
68300;SDS011;55146;47.468;18.806;2023-07-08T06:17:03;10.80;;;6.18;;
68300;SDS011;55146;47.468;18.806;2023-07-08T06:19:29;13.23;;;5.43;;
68300;SDS011;55146;47.468;18.806;2023-07-08T06:21:54;8.53;;;5.10;;
68300;SDS011;55146;47.468;18.806;2023-07-08T06:24:20;11.40;;;5.90;;
68300;SDS011;55146;47.468;18.806;2023-07-08T06:26:46;9.27;;;5.63;;
68300;SDS011;55146;47.468;18.806;2023-07-08T06:29:11;10.00;;;5.60;;
68300;SDS011;55146;47.468;18.806;2023-07-08T06:31:37;8.70;;;4.83;;
68300;SDS011;55146;47.468;18.806;2023-07-08T06:34:02;10.80;;;6.70;;
68300;SDS011;55146;47.468;18.806;2023-07-08T06:36:29;7.57;;;5.43;;
68300;SDS011;55146;47.468;18.806;2023-07-08T06:38:55;10.73;;;4.80;;
68300;SDS011;55146;47.468;18.806;2023-07-08T06:41:21;10.47;;;4.77;;
68300;SDS011;55146;47.468;18.806;2023-07-08T06:43:46;10.70;;;4.95;;
68300;SDS011;55146;47.468;18.806;2023-07-08T06:46:11;6.33;;;4.10;;
68300;SDS011;55146;47.468;18.806;2023-07-08T06:48:37;7.05;;;3.90;;
68300;SDS011;55146;47.468;18.806;2023-07-08T06:51:03;10.17;;;5.10;;
68300;SDS011;55146;47.468;18.806;2023-07-08T06:53:28;11.37;;;4.40;;
68300;SDS011;55146;47.468;18.806;2023-07-08T06:55:53;6.83;;;4.33;;
68300;SDS011;55146;47.468;18.806;2023-07-08T06:58:19;8.13;;;3.95;;
68300;SDS011;55146;47.468;18.806;2023-07-08T07:00:44;7.37;;;4.10;;
68300;SDS011;55146;47.468;18.806;2023-07-08T07:03:10;9.90;;;4.20;;
68300;SDS011;55146;47.468;18.806;2023-07-08T07:05:37;8.20;;;4.47;;
68300;SDS011;55146;47.468;18.806;2023-07-08T07:08:02;6.70;;;4.37;;
68300;SDS011;55146;47.468;18.806;2023-07-08T07:10:30;8.93;;;4.72;;
68300;SDS011;55146;47.468;18.806;2023-07-08T07:12:55;9.05;;;4.32;;
68300;SDS011;55146;47.468;18.806;2023-07-08T07:15:20;5.83;;;3.40;;
68300;SDS011;55146;47.468;18.806;2023-07-08T07:17:46;9.03;;;4.30;;
68300;SDS011;55146;47.468;18.806;2023-07-08T07:20:11;6.73;;;3.47;;
68300;SDS011;55146;47.468;18.806;2023-07-08T07:22:37;8.10;;;3.60;;
68300;SDS011;55146;47.468;18.806;2023-07-08T07:25:03;7.60;;;4.27;;
68300;SDS011;55146;47.468;18.806;2023-07-08T07:27:29;7.03;;;4.03;;
68300;SDS011;55146;47.468;18.806;2023-07-08T07:29:55;7.23;;;4.27;;
68300;SDS011;55146;47.468;18.806;2023-07-08T07:32:22;6.93;;;3.87;;
68300;SDS011;55146;47.468;18.806;2023-07-08T07:34:49;7.45;;;4.45;;
68300;SDS011;55146;47.468;18.806;2023-07-08T07:37:15;7.57;;;4.05;;
68300;SDS011;55146;47.468;18.806;2023-07-08T07:39:43;8.23;;;4.35;;
68300;SDS011;55146;47.468;18.806;2023-07-08T07:42:08;6.37;;;4.10;;
68300;SDS011;55146;47.468;18.806;2023-07-08T07:44:35;6.65;;;3.83;;
68300;SDS011;55146;47.468;18.806;2023-07-08T07:47:01;6.33;;;3.70;;
68300;SDS011;55146;47.468;18.806;2023-07-08T07:49:27;6.62;;;3.90;;
68300;SDS011;55146;47.468;18.806;2023-07-08T07:51:52;7.07;;;3.80;;
68300;SDS011;55146;47.468;18.806;2023-07-08T07:54:18;5.93;;;3.53;;
68300;SDS011;55146;47.468;18.806;2023-07-08T07:56:43;5.73;;;3.00;;
68300;SDS011;55146;47.468;18.806;2023-07-08T07:59:09;5.93;;;3.67;;
68300;SDS011;55146;47.468;18.806;2023-07-08T08:01:35;6.97;;;4.15;;
68300;SDS011;55146;47.468;18.806;2023-07-08T08:04:01;6.97;;;4.07;;
68300;SDS011;55146;47.468;18.806;2023-07-08T08:06:26;6.83;;;3.20;;
68300;SDS011;55146;47.468;18.806;2023-07-08T08:08:52;7.03;;;3.12;;
68300;SDS011;55146;47.468;18.806;2023-07-08T08:11:17;8.47;;;4.00;;
68300;SDS011;55146;47.468;18.806;2023-07-08T08:13:43;6.03;;;3.10;;
68300;SDS011;55146;47.468;18.806;2023-07-08T08:16:08;5.47;;;3.72;;
68300;SDS011;55146;47.468;18.806;2023-07-08T08:18:34;5.77;;;2.80;;
68300;SDS011;55146;47.468;18.806;2023-07-08T08:20:59;6.90;;;3.27;;
68300;SDS011;55146;47.468;18.806;2023-07-08T08:23:24;6.27;;;3.77;;
68300;SDS011;55146;47.468;18.806;2023-07-08T08:25:50;6.90;;;3.53;;
68300;SDS011;55146;47.468;18.806;2023-07-08T08:28:16;6.30;;;4.57;;
68300;SDS011;55146;47.468;18.806;2023-07-08T08:30:42;7.07;;;3.47;;
68300;SDS011;55146;47.468;18.806;2023-07-08T08:33:11;7.10;;;3.57;;
68300;SDS011;55146;47.468;18.806;2023-07-08T08:35:36;8.13;;;3.85;;
68300;SDS011;55146;47.468;18.806;2023-07-08T08:38:03;8.40;;;3.60;;
68300;SDS011;55146;47.468;18.806;2023-07-08T08:40:29;6.83;;;3.80;;
68300;SDS011;55146;47.468;18.806;2023-07-08T08:43:03;5.57;;;3.45;;
68300;SDS011;55146;47.468;18.806;2023-07-08T08:45:39;6.75;;;4.18;;
68300;SDS011;55146;47.468;18.806;2023-07-08T08:48:13;6.55;;;3.62;;
68300;SDS011;55146;47.468;18.806;2023-07-08T08:53:32;8.53;;;3.70;;
68300;SDS011;55146;47.468;18.806;2023-07-08T09:01:41;10.40;;;4.20;;
68300;SDS011;55146;47.468;18.806;2023-07-08T09:04:11;6.85;;;3.50;;
68300;SDS011;55146;47.468;18.806;2023-07-08T09:06:40;7.55;;;2.78;;
68300;SDS011;55146;47.468;18.806;2023-07-08T09:09:10;5.50;;;3.83;;
68300;SDS011;55146;47.468;18.806;2023-07-08T09:14:26;8.07;;;3.30;;
68300;SDS011;55146;47.468;18.806;2023-07-08T09:28:03;6.10;;;3.37;;
68300;SDS011;55146;47.468;18.806;2023-07-08T09:30:28;6.73;;;3.50;;
68300;SDS011;55146;47.468;18.806;2023-07-08T09:32:55;6.93;;;3.33;;
68300;SDS011;55146;47.468;18.806;2023-07-08T09:35:25;6.78;;;3.50;;
68300;SDS011;55146;47.468;18.806;2023-07-08T09:37:53;8.90;;;3.62;;
68300;SDS011;55146;47.468;18.806;2023-07-08T09:40:21;7.65;;;3.85;;
68300;SDS011;55146;47.468;18.806;2023-07-08T09:42:55;6.47;;;3.53;;
68300;SDS011;55146;47.468;18.806;2023-07-08T09:45:42;8.68;;;3.12;;
68300;SDS011;55146;47.468;18.806;2023-07-08T09:48:14;6.65;;;3.40;;
68300;SDS011;55146;47.468;18.806;2023-07-08T09:50:47;9.90;;;4.57;;
68300;SDS011;55146;47.468;18.806;2023-07-08T09:53:14;8.68;;;3.80;;
68300;SDS011;55146;47.468;18.806;2023-07-08T09:55:39;7.43;;;3.50;;
68300;SDS011;55146;47.468;18.806;2023-07-08T09:58:05;6.85;;;3.72;;
68300;SDS011;55146;47.468;18.806;2023-07-08T10:00:39;5.80;;;3.80;;
68300;SDS011;55146;47.468;18.806;2023-07-08T10:03:09;7.10;;;3.30;;
68300;SDS011;55146;47.468;18.806;2023-07-08T10:05:42;7.68;;;3.92;;
68300;SDS011;55146;47.468;18.806;2023-07-08T10:08:13;5.97;;;3.85;;
68300;SDS011;55146;47.468;18.806;2023-07-08T10:10:45;7.78;;;3.83;;
68300;SDS011;55146;47.468;18.806;2023-07-08T10:16:23;6.90;;;3.37;;
68300;SDS011;55146;47.468;18.806;2023-07-08T10:18:50;5.82;;;3.35;;
68300;SDS011;55146;47.468;18.806;2023-07-08T10:24:12;6.22;;;4.00;;
68300;SDS011;55146;47.468;18.806;2023-07-08T10:27:12;8.20;;;3.67;;
68300;SDS011;55146;47.468;18.806;2023-07-08T10:35:18;5.95;;;3.87;;
68300;SDS011;55146;47.468;18.806;2023-07-08T10:40:54;7.20;;;3.60;;
68300;SDS011;55146;47.468;18.806;2023-07-08T10:46:28;6.47;;;3.65;;
68300;SDS011;55146;47.468;18.806;2023-07-08T10:52:21;8.73;;;4.12;;
68300;SDS011;55146;47.468;18.806;2023-07-08T10:55:35;5.67;;;3.80;;
68300;SDS011;55146;47.468;18.806;2023-07-08T10:58:25;8.27;;;3.50;;
68300;SDS011;55146;47.468;18.806;2023-07-08T11:01:04;5.40;;;3.50;;
68300;SDS011;55146;47.468;18.806;2023-07-08T11:06:34;7.28;;;4.53;;
68300;SDS011;55146;47.468;18.806;2023-07-08T11:09:07;6.23;;;3.80;;
68300;SDS011;55146;47.468;18.806;2023-07-08T11:11:46;6.25;;;3.65;;
68300;SDS011;55146;47.468;18.806;2023-07-08T11:17:18;7.57;;;3.62;;
68300;SDS011;55146;47.468;18.806;2023-07-08T11:19:50;8.07;;;4.75;;
68300;SDS011;55146;47.468;18.806;2023-07-08T11:22:26;5.80;;;3.13;;
68300;SDS011;55146;47.468;18.806;2023-07-08T11:24:56;7.82;;;4.00;;
68300;SDS011;55146;47.468;18.806;2023-07-08T11:27:25;6.07;;;3.30;;
68300;SDS011;55146;47.468;18.806;2023-07-08T11:29:59;7.15;;;3.83;;
68300;SDS011;55146;47.468;18.806;2023-07-08T11:32:30;6.40;;;3.87;;
68300;SDS011;55146;47.468;18.806;2023-07-08T11:34:58;7.50;;;4.00;;
68300;SDS011;55146;47.468;18.806;2023-07-08T11:37:25;7.22;;;3.35;;
68300;SDS011;55146;47.468;18.806;2023-07-08T11:39:53;6.80;;;4.87;;
68300;SDS011;55146;47.468;18.806;2023-07-08T11:42:40;8.20;;;4.53;;
68300;SDS011;55146;47.468;18.806;2023-07-08T11:45:15;7.03;;;4.07;;
68300;SDS011;55146;47.468;18.806;2023-07-08T11:50:41;7.12;;;3.40;;
68300;SDS011;55146;47.468;18.806;2023-07-08T11:53:12;7.55;;;4.28;;
68300;SDS011;55146;47.468;18.806;2023-07-08T12:03:49;8.45;;;3.95;;
68300;SDS011;55146;47.468;18.806;2023-07-08T12:08:51;6.37;;;3.45;;
68300;SDS011;55146;47.468;18.806;2023-07-08T12:11:17;5.82;;;3.80;;
68300;SDS011;55146;47.468;18.806;2023-07-08T12:13:42;7.63;;;4.77;;
68300;SDS011;55146;47.468;18.806;2023-07-08T12:16:10;8.03;;;4.20;;
68300;SDS011;55146;47.468;18.806;2023-07-08T12:18:38;11.35;;;4.05;;
68300;SDS011;55146;47.468;18.806;2023-07-08T12:21:10;7.75;;;4.97;;
68300;SDS011;55146;47.468;18.806;2023-07-08T12:23:42;7.57;;;4.17;;
68300;SDS011;55146;47.468;18.806;2023-07-08T12:26:12;10.38;;;3.80;;
68300;SDS011;55146;47.468;18.806;2023-07-08T12:28:38;6.10;;;3.80;;
68300;SDS011;55146;47.468;18.806;2023-07-08T12:31:13;7.75;;;4.00;;
68300;SDS011;55146;47.468;18.806;2023-07-08T12:33:43;8.52;;;4.90;;
68300;SDS011;55146;47.468;18.806;2023-07-08T12:36:10;7.77;;;4.40;;
68300;SDS011;55146;47.468;18.806;2023-07-08T12:38:44;5.37;;;3.40;;
68300;SDS011;55146;47.468;18.806;2023-07-08T12:41:33;6.12;;;3.67;;
68300;SDS011;55146;47.468;18.806;2023-07-08T12:43:57;8.43;;;3.30;;
68300;SDS011;55146;47.468;18.806;2023-07-08T12:46:24;6.90;;;3.70;;
68300;SDS011;55146;47.468;18.806;2023-07-08T12:48:50;6.00;;;3.50;;
68300;SDS011;55146;47.468;18.806;2023-07-08T12:51:17;8.23;;;4.35;;
68300;SDS011;55146;47.468;18.806;2023-07-08T12:53:46;6.72;;;4.32;;
68300;SDS011;55146;47.468;18.806;2023-07-08T12:56:14;6.43;;;4.13;;
68300;SDS011;55146;47.468;18.806;2023-07-08T12:58:41;5.82;;;4.30;;
68300;SDS011;55146;47.468;18.806;2023-07-08T13:01:08;7.10;;;4.05;;
68300;SDS011;55146;47.468;18.806;2023-07-08T13:03:42;7.90;;;3.90;;
68300;SDS011;55146;47.468;18.806;2023-07-08T13:06:11;6.35;;;4.10;;
68300;SDS011;55146;47.468;18.806;2023-07-08T13:08:40;7.37;;;3.70;;
68300;SDS011;55146;47.468;18.806;2023-07-08T13:11:05;7.40;;;4.30;;
68300;SDS011;55146;47.468;18.806;2023-07-08T13:13:44;5.87;;;3.50;;
68300;SDS011;55146;47.468;18.806;2023-07-08T13:16:15;6.05;;;3.55;;
68300;SDS011;55146;47.468;18.806;2023-07-08T13:18:41;7.20;;;4.20;;
68300;SDS011;55146;47.468;18.806;2023-07-08T13:21:09;5.78;;;3.90;;
68300;SDS011;55146;47.468;18.806;2023-07-08T13:23:38;9.15;;;4.43;;
68300;SDS011;55146;47.468;18.806;2023-07-08T13:28:44;9.27;;;4.12;;
68300;SDS011;55146;47.468;18.806;2023-07-08T13:31:18;6.18;;;3.92;;
68300;SDS011;55146;47.468;18.806;2023-07-08T13:33:46;7.95;;;4.10;;
68300;SDS011;55146;47.468;18.806;2023-07-08T13:36:15;7.07;;;4.17;;
68300;SDS011;55146;47.468;18.806;2023-07-08T13:38:43;7.75;;;4.80;;
68300;SDS011;55146;47.468;18.806;2023-07-08T13:41:09;6.07;;;3.87;;
68300;SDS011;55146;47.468;18.806;2023-07-08T13:43:36;7.03;;;3.77;;
68300;SDS011;55146;47.468;18.806;2023-07-08T13:46:03;7.00;;;3.95;;
68300;SDS011;55146;47.468;18.806;2023-07-08T13:48:33;9.55;;;4.35;;
68300;SDS011;55146;47.468;18.806;2023-07-08T13:51:16;7.10;;;3.58;;
68300;SDS011;55146;47.468;18.806;2023-07-08T13:53:47;7.60;;;4.25;;
68300;SDS011;55146;47.468;18.806;2023-07-08T13:56:32;8.63;;;3.50;;
68300;SDS011;55146;47.468;18.806;2023-07-08T13:59:03;7.20;;;3.67;;
68300;SDS011;55146;47.468;18.806;2023-07-08T14:01:33;9.43;;;3.97;;
68300;SDS011;55146;47.468;18.806;2023-07-08T14:03:59;5.70;;;3.65;;
68300;SDS011;55146;47.468;18.806;2023-07-08T14:06:31;6.47;;;3.97;;
68300;SDS011;55146;47.468;18.806;2023-07-08T14:09:00;6.97;;;3.67;;
68300;SDS011;55146;47.468;18.806;2023-07-08T14:11:34;9.13;;;3.92;;
68300;SDS011;55146;47.468;18.806;2023-07-08T14:14:00;7.40;;;4.10;;
68300;SDS011;55146;47.468;18.806;2023-07-08T14:16:26;8.10;;;4.37;;
68300;SDS011;55146;47.468;18.806;2023-07-08T14:18:58;18.87;;;5.40;;
68300;SDS011;55146;47.468;18.806;2023-07-08T14:21:28;7.00;;;4.03;;
68300;SDS011;55146;47.468;18.806;2023-07-08T14:23:54;9.77;;;4.47;;
68300;SDS011;55146;47.468;18.806;2023-07-08T14:26:20;7.00;;;4.00;;
68300;SDS011;55146;47.468;18.806;2023-07-08T14:28:45;8.40;;;3.83;;
68300;SDS011;55146;47.468;18.806;2023-07-08T14:31:12;5.43;;;3.70;;
68300;SDS011;55146;47.468;18.806;2023-07-08T14:33:39;6.93;;;3.62;;
68300;SDS011;55146;47.468;18.806;2023-07-08T14:36:10;6.30;;;3.77;;
68300;SDS011;55146;47.468;18.806;2023-07-08T14:38:36;8.75;;;4.97;;
68300;SDS011;55146;47.468;18.806;2023-07-08T14:41:02;8.90;;;4.57;;
68300;SDS011;55146;47.468;18.806;2023-07-08T14:43:28;9.10;;;4.37;;
68300;SDS011;55146;47.468;18.806;2023-07-08T14:45:55;10.80;;;3.80;;
68300;SDS011;55146;47.468;18.806;2023-07-08T14:48:23;7.65;;;4.22;;
68300;SDS011;55146;47.468;18.806;2023-07-08T14:50:50;7.75;;;3.40;;
68300;SDS011;55146;47.468;18.806;2023-07-08T14:53:16;5.90;;;4.00;;
68300;SDS011;55146;47.468;18.806;2023-07-08T14:55:43;25.48;;;8.23;;
68300;SDS011;55146;47.468;18.806;2023-07-08T14:58:24;14.80;;;4.93;;
68300;SDS011;55146;47.468;18.806;2023-07-08T15:00:57;19.12;;;7.35;;
68300;SDS011;55146;47.468;18.806;2023-07-08T15:03:24;15.05;;;5.87;;
68300;SDS011;55146;47.468;18.806;2023-07-08T15:05:50;7.93;;;4.05;;
68300;SDS011;55146;47.468;18.806;2023-07-08T15:08:16;5.60;;;3.67;;
68300;SDS011;55146;47.468;18.806;2023-07-08T15:10:50;6.60;;;3.83;;
68300;SDS011;55146;47.468;18.806;2023-07-08T15:13:18;7.12;;;3.97;;
68300;SDS011;55146;47.468;18.806;2023-07-08T15:15:45;6.68;;;3.15;;
68300;SDS011;55146;47.468;18.806;2023-07-08T15:18:13;5.93;;;3.60;;
68300;SDS011;55146;47.468;18.806;2023-07-08T15:20:42;6.23;;;3.97;;
68300;SDS011;55146;47.468;18.806;2023-07-08T15:23:09;6.05;;;3.60;;
68300;SDS011;55146;47.468;18.806;2023-07-08T15:25:35;8.88;;;3.87;;
68300;SDS011;55146;47.468;18.806;2023-07-08T15:28:01;11.00;;;4.82;;
68300;SDS011;55146;47.468;18.806;2023-07-08T15:30:28;13.82;;;5.53;;
68300;SDS011;55146;47.468;18.806;2023-07-08T15:32:55;8.20;;;3.87;;
68300;SDS011;55146;47.468;18.806;2023-07-08T15:35:23;5.72;;;3.65;;
68300;SDS011;55146;47.468;18.806;2023-07-08T15:38:25;6.07;;;3.85;;
68300;SDS011;55146;47.468;18.806;2023-07-08T15:40:50;6.80;;;3.40;;
68300;SDS011;55146;47.468;18.806;2023-07-08T15:43:17;7.45;;;3.92;;
68300;SDS011;55146;47.468;18.806;2023-07-08T15:45:42;5.30;;;3.45;;
68300;SDS011;55146;47.468;18.806;2023-07-08T15:48:13;7.07;;;4.00;;
68300;SDS011;55146;47.468;18.806;2023-07-08T15:50:39;7.87;;;4.65;;
68300;SDS011;55146;47.468;18.806;2023-07-08T15:53:05;7.97;;;3.65;;
68300;SDS011;55146;47.468;18.806;2023-07-08T15:55:40;6.37;;;4.75;;
68300;SDS011;55146;47.468;18.806;2023-07-08T15:58:22;6.65;;;4.15;;